createdAt,value
2019-01-19T00:00:37.721Z,0.00
2019-01-19T00:01:37.771Z,0.00
2019-01-19T00:02:37.782Z,0.00
2019-01-19T00:03:37.868Z,0.00
2019-01-19T00:04:37.888Z,0.00
2019-01-19T00:05:37.917Z,0.00
2019-01-19T00:06:38.199Z,0.00
2019-01-19T00:07:37.936Z,0.00
2019-01-19T00:08:38.003Z,0.00
2019-01-19T00:09:37.989Z,0.00
2019-01-19T00:10:38.079Z,0.00
2019-01-19T00:11:38.100Z,0.00
2019-01-19T00:12:38.084Z,0.00
2019-01-19T00:13:38.460Z,0.00
2019-01-19T00:14:38.144Z,0.00
2019-01-19T00:15:38.218Z,0.00
2019-01-19T00:16:38.202Z,0.00
2019-01-19T00:17:38.225Z,0.00
2019-01-19T00:18:38.305Z,0.00
2019-01-19T00:19:38.345Z,0.00
2019-01-19T00:20:38.618Z,0.00
2019-01-19T00:21:38.346Z,0.00
2019-01-19T00:22:38.436Z,0.00
2019-01-19T00:23:38.471Z,0.00
2019-01-19T00:24:38.429Z,0.00
2019-01-19T00:25:38.513Z,0.00
2019-01-19T00:26:38.502Z,0.00
2019-01-19T00:27:38.821Z,0.00
2019-01-19T00:28:38.554Z,0.00
2019-01-19T00:29:38.631Z,0.00
2019-01-19T00:30:38.615Z,0.00
2019-01-19T00:31:38.698Z,0.00
2019-01-19T00:32:38.723Z,0.00
2019-01-19T00:33:38.699Z,0.00
2019-01-19T00:34:39.034Z,0.00
2019-01-19T00:35:38.810Z,0.00
2019-01-19T00:36:38.845Z,0.00
2019-01-19T00:37:38.819Z,0.00
2019-01-19T00:38:38.860Z,0.00
2019-01-19T00:39:38.883Z,0.00
2019-01-19T00:40:38.917Z,0.00
2019-01-19T00:41:39.245Z,0.00
2019-01-19T00:42:39.020Z,0.00
2019-01-19T00:44:39.034Z,0.00
2019-01-19T00:45:39.065Z,0.00
2019-01-19T00:46:39.150Z,0.00
2019-01-19T00:47:39.174Z,0.00
2019-01-19T00:48:39.502Z,0.00
2019-01-19T00:49:39.181Z,0.00
2019-01-19T00:50:39.209Z,0.00
2019-01-19T00:51:39.245Z,0.00
2019-01-19T00:52:39.273Z,0.00
2019-01-19T00:54:39.378Z,0.00
2019-01-19T00:55:39.657Z,0.00
2019-01-19T00:56:39.437Z,0.00
2019-01-19T00:57:39.476Z,0.00
2019-01-19T00:58:39.455Z,0.00
2019-01-19T00:59:41.074Z,0.00
2019-01-19T01:00:39.561Z,0.00
2019-01-19T01:01:39.549Z,0.00
2019-01-19T01:03:39.911Z,0.00
2019-01-19T01:04:39.677Z,0.00
2019-01-19T01:05:39.711Z,0.00
2019-01-19T01:06:39.745Z,0.00
2019-01-19T01:07:39.769Z,0.00
2019-01-19T01:08:39.748Z,0.00
2019-01-19T01:09:39.826Z,0.00
2019-01-19T01:10:40.114Z,0.00
2019-01-19T01:11:41.707Z,0.00
2019-01-19T01:13:39.948Z,0.00
2019-01-19T01:14:39.978Z,0.00
2019-01-19T01:15:40.009Z,0.00
2019-01-19T01:16:40.055Z,0.00
2019-01-19T01:17:40.369Z,0.00
2019-01-19T01:18:40.067Z,0.00
2019-01-19T01:19:40.132Z,0.00
2019-01-19T01:20:40.156Z,0.00
2019-01-19T01:22:40.218Z,0.00
2019-01-19T01:23:40.250Z,0.00
2019-01-19T01:24:40.595Z,0.00
2019-01-19T01:25:40.262Z,0.00
2019-01-19T01:26:40.284Z,0.00
2019-01-19T01:27:40.322Z,0.00
2019-01-19T01:28:40.401Z,0.00
2019-01-19T01:30:40.408Z,0.00
2019-01-19T01:31:40.739Z,0.00
2019-01-19T01:32:40.517Z,0.00
2019-01-19T01:33:40.552Z,0.00
2019-01-19T01:34:40.524Z,0.00
2019-01-19T01:35:40.601Z,0.00
2019-01-19T01:36:40.589Z,0.00
2019-01-19T01:37:40.621Z,0.00
2019-01-19T01:39:41.021Z,0.00
2019-01-19T01:40:40.750Z,0.00
2019-01-19T01:41:40.778Z,0.00
2019-01-19T01:43:41.095Z,0.00
2019-01-19T01:44:40.900Z,0.00
2019-01-19T01:45:40.999Z,0.00
2019-01-19T01:46:41.405Z,0.00
2019-01-19T01:47:40.960Z,0.00
2019-01-19T01:48:40.992Z,0.00
2019-01-19T01:49:41.020Z,0.00
2019-01-19T01:50:41.003Z,0.00
2019-01-19T01:51:41.032Z,0.00
2019-01-19T01:52:41.063Z,0.00
2019-01-19T01:53:41.493Z,0.00
2019-01-19T01:54:41.204Z,0.00
2019-01-19T01:55:41.221Z,0.00
2019-01-19T01:56:41.246Z,0.00
2019-01-19T01:57:41.215Z,0.00
2019-01-19T01:59:41.272Z,0.00
2019-01-19T02:00:41.610Z,0.00
2019-01-19T02:01:41.328Z,0.00
2019-01-19T02:02:41.407Z,0.00
2019-01-19T02:03:41.442Z,0.00
2019-01-19T02:04:41.480Z,0.00
2019-01-19T02:05:41.449Z,0.00
2019-01-19T02:06:41.525Z,0.00
2019-01-19T02:07:41.817Z,0.00
2019-01-19T02:08:41.536Z,0.00
2019-01-19T02:09:41.630Z,0.00
2019-01-19T02:10:41.593Z,0.00
2019-01-19T02:11:41.678Z,0.00
2019-01-19T02:13:41.734Z,0.00
2019-01-19T02:14:42.033Z,0.00
2019-01-19T02:15:41.793Z,0.00
2019-01-19T02:16:41.827Z,0.00
2019-01-19T02:17:41.804Z,0.00
2019-01-19T02:18:41.885Z,0.00
2019-01-19T02:19:41.910Z,0.00
2019-01-19T02:20:42.193Z,0.00
2019-01-19T02:21:41.926Z,0.00
2019-01-19T02:22:41.957Z,0.00
2019-01-19T02:23:42.028Z,0.00
2019-01-19T02:24:42.009Z,0.00
2019-01-19T02:25:42.047Z,0.00
2019-01-19T02:26:42.380Z,0.00
2019-01-19T02:27:42.102Z,0.00
2019-01-19T02:28:42.189Z,0.00
2019-01-19T02:29:42.208Z,0.00
2019-01-19T02:30:42.240Z,0.00
2019-01-19T02:32:42.250Z,0.00
2019-01-19T02:33:42.581Z,0.00
2019-01-19T02:34:42.360Z,0.00
2019-01-19T02:35:48.409Z,0.00
2019-01-19T02:36:42.399Z,0.00
2019-01-19T02:37:42.414Z,0.00
2019-01-19T02:39:42.467Z,0.00
2019-01-19T02:40:42.846Z,0.00
2019-01-19T02:41:42.569Z,0.00
2019-01-19T02:42:42.544Z,0.00
2019-01-19T02:43:42.623Z,0.00
2019-01-19T02:44:42.657Z,0.00
2019-01-19T02:45:42.637Z,0.00
2019-01-19T02:46:42.765Z,0.00
2019-01-19T02:47:42.992Z,0.00
2019-01-19T02:48:42.727Z,0.00
2019-01-19T02:49:42.804Z,0.00
2019-01-19T02:50:42.791Z,0.00
2019-01-19T02:51:42.866Z,0.00
2019-01-19T02:52:42.857Z,0.00
2019-01-19T02:53:42.926Z,0.00
2019-01-19T02:54:43.256Z,0.00
2019-01-19T02:55:42.983Z,0.00
2019-01-19T02:56:43.010Z,0.00
2019-01-19T02:57:43.051Z,0.00
2019-01-19T02:58:43.032Z,0.00
2019-01-19T02:59:43.105Z,0.00
2019-01-19T03:00:43.160Z,0.00
2019-01-19T03:01:43.414Z,0.00
2019-01-19T03:02:43.245Z,0.00
2019-01-19T03:03:43.226Z,0.00
2019-01-19T03:04:43.198Z,0.00
2019-01-19T03:05:43.284Z,0.00
2019-01-19T03:06:43.260Z,0.00
2019-01-19T03:07:43.353Z,0.00
2019-01-19T03:08:43.628Z,0.00
2019-01-19T03:09:43.351Z,0.00
2019-01-19T03:10:43.432Z,0.00
2019-01-19T03:12:43.486Z,0.00
2019-01-19T03:13:43.524Z,0.00
2019-01-19T03:14:43.504Z,0.00
2019-01-19T03:15:43.838Z,0.00
2019-01-19T03:16:43.605Z,0.00
2019-01-19T03:17:43.607Z,0.00
2019-01-19T03:18:43.624Z,0.00
2019-01-19T03:19:43.702Z,0.00
2019-01-19T03:21:43.767Z,0.00
2019-01-19T03:22:44.037Z,0.00
2019-01-19T03:23:43.763Z,0.00
2019-01-19T03:24:43.845Z,0.00
2019-01-19T03:25:43.873Z,0.00
2019-01-19T03:27:43.947Z,0.00
2019-01-19T03:28:43.927Z,0.00
2019-01-19T03:29:44.255Z,0.00
2019-01-19T03:30:44.028Z,0.00
2019-01-19T03:31:44.064Z,0.00
2019-01-19T03:32:44.041Z,0.00
2019-01-19T03:33:44.109Z,0.00
2019-01-19T03:34:44.090Z,0.00
2019-01-19T03:35:44.175Z,0.00
2019-01-19T03:36:44.507Z,0.00
2019-01-19T03:37:44.232Z,0.00
2019-01-19T03:38:44.261Z,0.00
2019-01-19T03:39:44.246Z,0.00
2019-01-19T03:40:44.266Z,0.00
2019-01-19T03:41:44.367Z,0.00
2019-01-19T03:42:44.382Z,0.00
2019-01-19T03:43:44.666Z,0.00
2019-01-19T03:44:44.391Z,0.00
2019-01-19T03:45:44.484Z,0.00
2019-01-19T03:46:44.503Z,0.00
2019-01-19T03:47:44.532Z,0.00
2019-01-19T03:49:44.545Z,0.00
2019-01-19T03:50:44.926Z,0.00
2019-01-19T03:51:44.656Z,0.00
2019-01-19T03:52:44.686Z,0.00
2019-01-19T03:53:44.666Z,0.00
2019-01-19T03:54:44.688Z,0.00
2019-01-19T03:55:44.778Z,0.00
2019-01-19T03:56:44.749Z,0.00
2019-01-19T03:57:45.074Z,0.00
2019-01-19T03:58:44.852Z,0.00
2019-01-19T03:59:44.886Z,0.00
2019-01-19T04:00:44.920Z,0.00
2019-01-19T04:01:44.947Z,0.00
2019-01-19T04:02:44.919Z,0.00
2019-01-19T04:03:44.985Z,0.00
2019-01-19T04:04:45.285Z,0.00
2019-01-19T04:05:45.013Z,0.00
2019-01-19T04:06:45.044Z,0.00
2019-01-19T04:07:45.121Z,0.00
2019-01-19T04:08:45.161Z,0.00
2019-01-19T04:09:45.181Z,0.00
2019-01-19T04:11:45.489Z,0.00
2019-01-19T04:15:45.364Z,0.00
2019-01-19T04:16:45.390Z,0.00
2019-01-19T04:17:45.420Z,0.00
2019-01-19T04:18:45.695Z,0.00
2019-01-19T04:19:45.484Z,0.00
2019-01-19T04:20:45.505Z,0.00
2019-01-19T04:22:45.517Z,0.00
2019-01-19T04:23:45.602Z,0.00
2019-01-19T04:24:45.623Z,0.00
2019-01-19T04:25:45.904Z,0.00
2019-01-19T04:26:45.639Z,0.00
2019-01-19T04:27:45.713Z,0.00
2019-01-19T04:28:45.748Z,0.00
2019-01-19T04:30:45.860Z,0.00
2019-01-19T04:31:46.086Z,0.00
2019-01-19T04:32:45.876Z,0.00
2019-01-19T04:33:45.847Z,0.00
2019-01-19T04:34:45.874Z,0.00
2019-01-19T04:35:45.955Z,0.00
2019-01-19T04:36:45.984Z,0.00
2019-01-19T04:37:46.261Z,0.00
2019-01-19T04:38:46.074Z,0.00
2019-01-19T04:39:46.080Z,0.00
2019-01-19T04:40:46.103Z,0.00
2019-01-19T04:41:46.083Z,0.00
2019-01-19T04:42:46.160Z,0.00
2019-01-19T04:43:46.443Z,0.00
2019-01-19T04:44:46.245Z,0.00
2019-01-19T04:45:46.219Z,0.00
2019-01-19T04:46:46.233Z,0.00
2019-01-19T04:47:46.322Z,0.00
2019-01-19T04:48:46.337Z,0.00
2019-01-19T04:49:46.314Z,0.00
2019-01-19T04:50:46.644Z,0.00
2019-01-19T04:51:46.436Z,0.00
2019-01-19T04:52:46.458Z,0.00
2019-01-19T04:53:46.489Z,0.00
2019-01-19T04:54:46.468Z,0.00
2019-01-19T04:55:46.492Z,0.00
2019-01-19T04:56:46.525Z,0.00
2019-01-19T04:57:46.860Z,0.00
2019-01-19T04:58:46.588Z,0.00
2019-01-19T04:59:46.668Z,0.00
2019-01-19T05:00:46.699Z,0.00
2019-01-19T05:01:46.677Z,0.00
2019-01-19T05:02:46.707Z,0.00
2019-01-19T05:03:46.784Z,0.00
2019-01-19T05:04:47.065Z,0.00
2019-01-19T05:05:46.842Z,0.00
2019-01-19T05:06:46.823Z,0.00
2019-01-19T05:07:46.848Z,0.00
2019-01-19T05:08:46.882Z,0.00
2019-01-19T05:09:46.906Z,0.00
2019-01-19T05:10:46.991Z,0.00
2019-01-19T05:11:47.322Z,0.00
2019-01-19T05:12:47.050Z,0.00
2019-01-19T05:13:47.087Z,0.00
2019-01-19T05:14:47.056Z,0.00
2019-01-19T05:15:47.085Z,0.00
2019-01-19T05:16:47.169Z,0.00
2019-01-19T05:17:47.155Z,0.00
2019-01-19T05:18:47.485Z,0.00
2019-01-19T05:19:47.264Z,0.00
2019-01-19T05:20:47.287Z,0.00
2019-01-19T05:22:47.312Z,0.00
2019-01-19T05:23:47.382Z,0.00
2019-01-19T05:24:47.356Z,0.00
2019-01-19T05:25:47.688Z,0.00
2019-01-19T05:26:47.461Z,0.00
2019-01-19T05:27:47.500Z,0.00
2019-01-19T05:28:47.891Z,0.00
2019-01-19T05:29:47.519Z,0.00
2019-01-19T05:30:47.580Z,0.00
2019-01-19T05:31:47.645Z,0.00
2019-01-19T05:32:47.890Z,0.00
2019-01-19T05:33:47.669Z,0.00
2019-01-19T05:34:47.660Z,0.00
2019-01-19T05:36:47.761Z,0.00
2019-01-19T05:37:47.740Z,0.00
2019-01-19T05:38:47.820Z,0.00
2019-01-19T05:39:48.151Z,0.00
2019-01-19T05:40:47.893Z,0.00
2019-01-19T05:41:47.853Z,0.00
2019-01-19T05:42:47.883Z,0.00
2019-01-19T05:43:47.975Z,0.00
2019-01-19T05:44:48.051Z,0.00
2019-01-19T05:45:48.026Z,0.00
2019-01-19T05:46:48.310Z,0.00
2019-01-19T05:47:48.087Z,0.00
2019-01-19T05:48:48.073Z,0.00
2019-01-19T05:49:48.151Z,0.00
2019-01-19T05:50:48.170Z,0.00
2019-01-19T05:51:48.156Z,0.00
2019-01-19T05:52:48.229Z,0.00
2019-01-19T05:53:48.512Z,0.00
2019-01-19T05:54:48.239Z,0.00
2019-01-19T05:55:48.278Z,0.00
2019-01-19T05:56:48.363Z,0.00
2019-01-19T05:57:48.335Z,0.00
2019-01-19T05:58:48.359Z,0.00
2019-01-19T05:59:48.453Z,0.00
2019-01-19T06:00:48.782Z,0.00
2019-01-19T06:01:48.451Z,0.00
2019-01-19T06:02:48.576Z,0.00
2019-01-19T06:03:48.558Z,0.00
2019-01-19T06:04:48.543Z,0.00
2019-01-19T06:05:48.733Z,0.00
2019-01-19T06:06:48.605Z,0.00
2019-01-19T06:07:48.984Z,0.00
2019-01-19T06:08:48.654Z,0.00
2019-01-19T06:09:48.746Z,0.00
2019-01-19T06:10:48.772Z,0.00
2019-01-19T06:11:48.752Z,0.00
2019-01-19T06:12:48.823Z,0.00
2019-01-19T06:13:48.809Z,0.00
2019-01-19T06:14:49.135Z,0.00
2019-01-19T06:15:48.935Z,0.00
2019-01-19T06:16:48.945Z,0.00
2019-01-19T06:17:48.922Z,0.00
2019-01-19T06:18:49.094Z,0.00
2019-01-19T06:19:49.049Z,0.00
2019-01-19T06:20:49.316Z,0.00
2019-01-19T06:21:49.150Z,0.00
2019-01-19T06:22:49.073Z,0.00
2019-01-19T06:23:49.105Z,0.00
2019-01-19T06:24:49.198Z,0.00
2019-01-19T06:25:49.173Z,0.00
2019-01-19T06:27:49.531Z,0.00
2019-01-19T06:29:49.345Z,0.00
2019-01-19T06:30:49.361Z,0.00
2019-01-19T06:31:49.394Z,0.00
2019-01-19T06:32:49.467Z,0.00
2019-01-19T06:33:49.781Z,0.00
2019-01-19T06:34:49.474Z,0.00
2019-01-19T06:36:54.849Z,0.00
2019-01-19T06:37:49.567Z,0.00
2019-01-19T06:38:49.542Z,0.00
2019-01-19T06:39:49.572Z,0.00
2019-01-19T06:40:49.673Z,0.00
2019-01-19T06:41:49.630Z,0.00
2019-01-19T06:42:49.669Z,0.00
2019-01-19T06:43:49.757Z,0.00
2019-01-19T06:44:49.832Z,0.00
2019-01-19T06:45:50.063Z,0.00
2019-01-19T06:46:49.786Z,0.00
2019-01-19T06:47:49.811Z,0.00
2019-01-19T06:48:49.842Z,0.00
2019-01-19T06:49:49.872Z,0.00
2019-01-19T06:50:49.952Z,0.00
2019-01-19T06:51:50.037Z,0.00
2019-01-19T06:52:50.313Z,0.00
2019-01-19T06:53:49.993Z,0.00
2019-01-19T06:54:50.071Z,0.00
2019-01-19T06:55:50.106Z,0.00
2019-01-19T06:56:50.126Z,0.00
2019-01-19T06:57:50.108Z,0.00
2019-01-19T06:58:50.206Z,0.00
2019-01-19T06:59:50.463Z,0.00
2019-01-19T07:00:50.260Z,0.00
2019-01-19T07:01:50.225Z,0.00
2019-01-19T07:02:50.274Z,4.00
2019-01-19T07:04:50.366Z,0.00
2019-01-19T07:05:50.402Z,4.00
2019-01-19T07:06:50.675Z,4.00
2019-01-19T07:09:50.509Z,8.00
2019-01-19T07:10:50.535Z,8.00
2019-01-19T07:11:50.522Z,8.00
2019-01-19T07:12:50.603Z,12.00
2019-01-19T07:13:50.892Z,12.00
2019-01-19T07:14:50.610Z,12.00
2019-01-19T07:15:50.686Z,16.00
2019-01-19T07:16:50.723Z,16.00
2019-01-19T07:17:50.790Z,20.00
2019-01-19T07:18:50.727Z,20.00
2019-01-19T07:19:50.803Z,20.00
2019-01-19T07:21:51.166Z,28.00
2019-01-19T07:22:50.858Z,32.00
2019-01-19T07:23:50.933Z,36.00
2019-01-19T07:25:50.938Z,44.00
2019-01-19T07:26:51.032Z,44.00
2019-01-19T07:27:51.045Z,48.00
2019-01-19T07:28:51.334Z,52.00
2019-01-19T07:29:51.108Z,56.00
2019-01-19T07:30:51.089Z,64.00
2019-01-19T07:31:51.109Z,68.00
2019-01-19T07:32:51.189Z,72.00
2019-01-19T07:33:51.224Z,76.00
2019-01-19T07:34:51.203Z,80.00
2019-01-19T07:35:51.543Z,88.00
2019-01-19T07:36:51.259Z,96.00
2019-01-19T07:37:51.355Z,100.00
2019-01-19T07:38:51.346Z,108.00
2019-01-19T07:39:51.449Z,116.00
2019-01-19T07:40:51.428Z,124.00
2019-01-19T07:41:51.408Z,128.00
2019-01-19T07:42:51.744Z,140.00
2019-01-19T07:43:51.520Z,144.00
2019-01-19T07:44:51.498Z,156.00
2019-01-19T07:45:51.597Z,164.00
2019-01-19T07:46:55.976Z,176.00
2019-01-19T07:47:51.586Z,184.00
2019-01-19T07:48:51.661Z,196.00
2019-01-19T07:49:51.944Z,204.00
2019-01-19T07:50:51.682Z,212.00
2019-01-19T07:51:51.748Z,224.00
2019-01-19T07:52:51.727Z,236.00
2019-01-19T07:53:51.837Z,248.00
2019-01-19T07:54:51.789Z,256.00
2019-01-19T07:55:51.873Z,272.00
2019-01-19T07:56:52.264Z,284.00
2019-01-19T07:57:51.880Z,296.00
2019-01-19T07:58:51.905Z,308.00
2019-01-19T07:59:51.939Z,324.00
2019-01-19T08:00:51.972Z,336.00
2019-01-19T08:01:52.049Z,348.00
2019-01-19T08:02:52.034Z,356.00
2019-01-19T08:03:52.412Z,372.00
2019-01-19T08:04:52.085Z,380.00
2019-01-19T08:05:52.115Z,388.00
2019-01-19T08:06:52.269Z,396.00
2019-01-19T08:07:52.221Z,408.00
2019-01-19T08:08:52.202Z,416.00
2019-01-19T08:09:52.531Z,428.00
2019-01-19T08:10:52.714Z,436.00
2019-01-19T08:12:52.376Z,456.00
2019-01-19T08:13:52.360Z,464.00
2019-01-19T08:14:52.382Z,472.00
2019-01-19T08:15:52.761Z,480.00
2019-01-19T08:16:52.450Z,492.00
2019-01-19T08:18:52.555Z,520.00
2019-01-19T08:19:52.526Z,532.00
2019-01-19T08:20:52.613Z,544.00
2019-01-19T08:21:52.913Z,556.00
2019-01-19T08:22:52.667Z,572.00
2019-01-19T08:23:52.698Z,580.00
2019-01-19T08:24:52.728Z,588.00
2019-01-19T08:25:52.715Z,604.00
2019-01-19T08:26:52.735Z,616.00
2019-01-19T08:27:52.812Z,632.00
2019-01-19T08:28:53.095Z,640.00
2019-01-19T08:29:52.876Z,648.00
2019-01-19T08:30:52.870Z,656.00
2019-01-19T08:31:52.935Z,672.00
2019-01-19T08:32:52.932Z,684.00
2019-01-19T08:33:52.999Z,692.00
2019-01-19T08:34:52.970Z,700.00
2019-01-19T08:35:53.312Z,708.00
2019-01-19T08:36:53.039Z,716.00
2019-01-19T08:37:53.068Z,720.00
2019-01-19T08:38:53.140Z,724.00
2019-01-19T08:39:53.120Z,732.00
2019-01-19T08:40:53.151Z,736.00
2019-01-19T08:41:53.271Z,740.00
2019-01-19T08:42:53.566Z,740.00
2019-01-19T08:43:53.240Z,744.00
2019-01-19T08:44:53.379Z,748.00
2019-01-19T08:45:53.350Z,752.00
2019-01-19T08:46:53.333Z,756.00
2019-01-19T08:47:53.413Z,764.00
2019-01-19T08:48:53.537Z,776.00
2019-01-19T08:49:53.714Z,780.00
2019-01-19T08:50:53.443Z,788.00
2019-01-19T08:51:53.538Z,792.00
2019-01-19T08:52:53.561Z,800.00
2019-01-19T08:53:53.585Z,804.00
2019-01-19T08:54:53.566Z,808.00
2019-01-19T08:56:53.631Z,812.00
2019-01-19T08:57:54.008Z,816.00
2019-01-19T08:58:53.689Z,824.00
2019-01-19T08:59:53.760Z,832.00
2019-01-19T09:00:53.793Z,840.00
2019-01-19T09:01:53.773Z,844.00
2019-01-19T09:02:53.831Z,852.00
2019-01-19T09:03:53.881Z,856.00
2019-01-19T09:04:53.877Z,860.00
2019-01-19T09:05:53.943Z,860.00
2019-01-19T09:06:53.925Z,864.00
2019-01-19T09:07:54.001Z,872.00
2019-01-19T09:08:53.979Z,884.00
2019-01-19T09:09:54.013Z,892.00
2019-01-19T09:10:54.495Z,904.00
2019-01-19T09:11:54.125Z,920.00
2019-01-19T09:12:54.633Z,928.00
2019-01-19T09:13:54.137Z,940.00
2019-01-19T09:14:54.158Z,952.00
2019-01-19T09:15:54.189Z,960.00
2019-01-19T09:16:54.271Z,968.00
2019-01-19T09:17:54.299Z,972.00
2019-01-19T09:18:54.278Z,980.00
2019-01-19T09:19:54.363Z,984.00
2019-01-19T09:20:54.336Z,984.00
2019-01-19T09:21:54.427Z,988.00
2019-01-19T09:22:54.451Z,992.00
2019-01-19T09:23:54.733Z,992.00
2019-01-19T09:24:54.456Z,988.00
2019-01-19T09:25:54.497Z,988.00
2019-01-19T09:26:54.570Z,984.00
2019-01-19T09:27:54.605Z,992.00
2019-01-19T09:28:54.625Z,1004.00
2019-01-19T09:29:54.610Z,1012.00
2019-01-19T09:30:55.000Z,1016.00
2019-01-19T09:32:54.703Z,1024.00
2019-01-19T09:33:54.776Z,1028.00
2019-01-19T09:34:54.764Z,1028.00
2019-01-19T09:35:54.841Z,1028.00
2019-01-19T09:36:55.118Z,1028.00
2019-01-19T09:37:54.905Z,1028.00
2019-01-19T09:38:54.895Z,1028.00
2019-01-19T09:40:54.991Z,1028.00
2019-01-19T09:41:54.969Z,1028.00
2019-01-19T09:42:55.301Z,1024.00
2019-01-19T09:43:55.083Z,1020.00
2019-01-19T09:44:55.062Z,1016.00
2019-01-19T09:45:55.244Z,1012.00
2019-01-19T09:46:55.122Z,1000.00
2019-01-19T09:47:55.195Z,1000.00
2019-01-19T09:48:55.482Z,992.00
2019-01-19T09:49:55.217Z,976.00
2019-01-19T09:50:55.294Z,960.00
2019-01-19T09:51:55.321Z,968.00
2019-01-19T09:52:55.300Z,964.00
2019-01-19T09:53:55.325Z,960.00
2019-01-19T09:54:55.410Z,952.00
2019-01-19T09:55:55.534Z,952.00
2019-01-19T09:56:55.513Z,944.00
2019-01-19T09:57:55.460Z,932.00
2019-01-19T09:58:55.489Z,916.00
2019-01-19T09:59:55.562Z,908.00
2019-01-19T10:00:55.598Z,888.00
2019-01-19T10:01:55.571Z,884.00
2019-01-19T10:02:55.655Z,876.00
2019-01-19T10:03:55.687Z,876.00
2019-01-19T10:04:55.705Z,884.00
2019-01-19T10:05:55.736Z,884.00
2019-01-19T10:06:55.717Z,892.00
2019-01-19T10:07:56.051Z,884.00
2019-01-19T10:08:55.829Z,880.00
2019-01-19T10:09:55.820Z,868.00
2019-01-19T10:10:55.907Z,868.00
2019-01-19T10:11:55.925Z,868.00
2019-01-19T10:12:55.902Z,876.00
2019-01-19T10:13:55.935Z,872.00
2019-01-19T10:14:56.009Z,868.00
2019-01-19T10:15:56.040Z,864.00
2019-01-19T10:16:56.017Z,856.00
2019-01-19T10:18:56.091Z,840.00
2019-01-19T10:19:56.177Z,832.00
2019-01-19T10:20:56.922Z,828.00
2019-01-19T10:21:56.170Z,820.00
2019-01-19T10:22:56.204Z,816.00
2019-01-19T10:23:56.282Z,816.00
2019-01-19T10:24:56.327Z,816.00
2019-01-19T10:26:56.322Z,800.00
2019-01-19T10:27:56.648Z,796.00
2019-01-19T10:28:56.397Z,796.00
2019-01-19T10:29:56.463Z,796.00
2019-01-19T10:30:56.444Z,804.00
2019-01-19T10:31:56.519Z,808.00
2019-01-19T10:32:56.554Z,808.00
2019-01-19T10:33:56.834Z,816.00
2019-01-19T10:34:56.559Z,824.00
2019-01-19T10:35:56.641Z,836.00
2019-01-19T10:36:56.629Z,848.00
2019-01-19T10:37:57.018Z,860.00
2019-01-19T10:38:56.681Z,864.00
2019-01-19T10:39:57.009Z,868.00
2019-01-19T10:40:56.794Z,876.00
2019-01-19T10:41:56.824Z,880.00
2019-01-19T10:42:56.809Z,880.00
2019-01-19T10:43:56.842Z,884.00
2019-01-19T10:44:56.924Z,888.00
2019-01-19T10:45:56.945Z,888.00
2019-01-19T10:46:57.224Z,892.00
2019-01-19T10:47:57.006Z,896.00
2019-01-19T10:48:57.041Z,896.00
2019-01-19T10:49:57.023Z,896.00
2019-01-19T10:50:57.094Z,896.00
2019-01-19T10:51:59.540Z,900.00
2019-01-19T10:52:57.315Z,900.00
2019-01-19T10:53:57.706Z,904.00
2019-01-19T10:55:57.243Z,912.00
2019-01-19T10:56:57.274Z,912.00
2019-01-19T10:57:57.304Z,912.00
2019-01-19T10:58:57.289Z,916.00
2019-01-19T10:59:57.319Z,932.00
2019-01-19T11:00:57.713Z,948.00
2019-01-19T11:01:57.403Z,960.00
2019-01-19T11:02:57.454Z,972.00
2019-01-19T11:03:57.606Z,976.00
2019-01-19T11:04:57.516Z,984.00
2019-01-19T11:05:57.493Z,988.00
2019-01-19T11:06:57.535Z,992.00
2019-01-19T11:08:03.658Z,1004.00
2019-01-19T11:08:57.586Z,1004.00
2019-01-19T11:09:57.766Z,1012.00
2019-01-19T11:10:57.663Z,1016.00
2019-01-19T11:11:57.724Z,1020.00
2019-01-19T11:12:57.709Z,1024.00
2019-01-19T11:14:59.340Z,1020.00
2019-01-19T11:15:57.858Z,1028.00
2019-01-19T11:16:57.835Z,1036.00
2019-01-19T11:17:57.915Z,1040.00
2019-01-19T11:18:58.122Z,1044.00
2019-01-19T11:19:57.980Z,1048.00
2019-01-19T11:21:03.489Z,1052.00
2019-01-19T11:21:58.287Z,1052.00
2019-01-19T11:22:58.022Z,1056.00
2019-01-19T11:23:58.098Z,1056.00
2019-01-19T11:24:58.080Z,1060.00
2019-01-19T11:25:58.156Z,1056.00
2019-01-19T11:26:58.250Z,1060.00
2019-01-19T11:27:58.289Z,1060.00
2019-01-19T11:28:58.510Z,1064.00
2019-01-19T11:29:58.230Z,1068.00
2019-01-19T11:30:58.392Z,1064.00
2019-01-19T11:31:58.340Z,1060.00
2019-01-19T11:32:58.477Z,1060.00
2019-01-19T11:33:58.417Z,1060.00
2019-01-19T11:34:58.384Z,1068.00
2019-01-19T11:35:58.709Z,1068.00
2019-01-19T11:36:58.489Z,1068.00
2019-01-19T11:37:58.531Z,1076.00
2019-01-19T11:38:58.629Z,1080.00
2019-01-19T11:39:58.590Z,1080.00
2019-01-19T11:40:58.573Z,1076.00
2019-01-19T11:41:58.591Z,1076.00
2019-01-19T11:42:58.971Z,1080.00
2019-01-19T11:43:58.661Z,1080.00
2019-01-19T11:44:58.731Z,1084.00
2019-01-19T11:45:58.712Z,1088.00
2019-01-19T11:46:58.743Z,1088.00
2019-01-19T11:47:58.822Z,1096.00
2019-01-19T11:48:58.804Z,1096.00
2019-01-19T11:49:58.961Z,1096.00
2019-01-19T11:50:58.916Z,1100.00
2019-01-19T11:51:58.946Z,1108.00
2019-01-19T11:52:59.059Z,1120.00
2019-01-19T11:53:59.003Z,1124.00
2019-01-19T11:54:58.982Z,1132.00
2019-01-19T11:55:59.372Z,1136.00
2019-01-19T11:56:59.088Z,1144.00
2019-01-19T11:57:59.077Z,1140.00
2019-01-19T11:58:59.212Z,1148.00
2019-01-19T11:59:59.189Z,1148.00
2019-01-19T12:00:59.302Z,1148.00
2019-01-19T12:01:59.498Z,1156.00
2019-01-19T12:02:59.283Z,1156.00
2019-01-19T12:03:59.322Z,1152.00
2019-01-19T12:04:59.301Z,1156.00
2019-01-19T12:05:59.381Z,1164.00
2019-01-19T12:06:59.348Z,1164.00
2019-01-19T12:07:59.686Z,1152.00
2019-01-19T12:08:59.404Z,1160.00
2019-01-19T12:09:59.911Z,1172.00
2019-01-19T12:10:59.664Z,1172.00
2019-01-19T12:11:59.547Z,1180.00
2019-01-19T12:12:59.674Z,1180.00
2019-01-19T12:14:00.537Z,1180.00
2019-01-19T12:14:59.645Z,1184.00
2019-01-19T12:15:59.684Z,1184.00
2019-01-19T12:16:59.664Z,1196.00
2019-01-19T12:18:59.827Z,1208.00
2019-01-19T12:19:59.793Z,1212.00
2019-01-19T12:20:59.816Z,1216.00
2019-01-19T12:21:59.853Z,1220.00
2019-01-19T12:22:59.850Z,1224.00
2019-01-19T12:23:59.925Z,1224.00
2019-01-19T12:25:00.015Z,1228.00
2019-01-19T12:26:00.256Z,1228.00
2019-01-19T12:26:59.999Z,1240.00
2019-01-19T12:28:00.037Z,1244.00
2019-01-19T12:29:00.012Z,1256.00
2019-01-19T12:30:00.061Z,1252.00
2019-01-19T12:31:00.167Z,1252.00
2019-01-19T12:32:00.158Z,1256.00
2019-01-19T12:33:00.487Z,1260.00
2019-01-19T12:34:00.219Z,1268.00
2019-01-19T12:35:00.252Z,1268.00
2019-01-19T12:36:00.390Z,1268.00
2019-01-19T12:37:00.306Z,1280.00
2019-01-19T12:38:00.290Z,1288.00
2019-01-19T12:39:00.325Z,1296.00
2019-01-19T12:40:00.647Z,1300.00
2019-01-19T12:41:00.380Z,1304.00
2019-01-19T12:42:00.455Z,1308.00
2019-01-19T12:43:00.439Z,1312.00
2019-01-19T12:44:00.525Z,1320.00
2019-01-19T12:45:00.607Z,1324.00
2019-01-19T12:46:00.831Z,1336.00
2019-01-19T12:47:00.563Z,1336.00
2019-01-19T12:48:00.594Z,1344.00
2019-01-19T12:49:00.677Z,1356.00
2019-01-19T12:51:00.728Z,1368.00
2019-01-19T12:52:01.011Z,1368.00
2019-01-19T12:53:00.827Z,1372.00
2019-01-19T12:54:00.787Z,1384.00
2019-01-19T12:55:00.812Z,1392.00
2019-01-19T12:56:00.895Z,1400.00
2019-01-19T12:57:01.037Z,1404.00
2019-01-19T12:58:01.256Z,1408.00
2019-01-19T12:59:00.979Z,1404.00
2019-01-19T13:00:01.015Z,1408.00
2019-01-19T13:01:01.037Z,1400.00
2019-01-19T13:02:01.119Z,1396.00
2019-01-19T13:03:01.099Z,1396.00
2019-01-19T13:04:01.204Z,1408.00
2019-01-19T13:05:01.165Z,1408.00
2019-01-19T13:06:01.225Z,1412.00
2019-01-19T13:07:01.517Z,1416.00
2019-01-19T13:08:01.278Z,1420.00
2019-01-19T13:09:01.354Z,1424.00
2019-01-19T13:10:01.273Z,1432.00
2019-01-19T13:11:02.233Z,1440.00
2019-01-19T13:12:01.382Z,1444.00
2019-01-19T13:13:01.422Z,1444.00
2019-01-19T13:14:03.368Z,1448.00
2019-01-19T13:15:01.692Z,1448.00
2019-01-19T13:16:01.459Z,1452.00
2019-01-19T13:17:02.034Z,1452.00
2019-01-19T13:18:01.687Z,1460.00
2019-01-19T13:19:01.739Z,1460.00
2019-01-19T13:20:01.717Z,1464.00
2019-01-19T13:22:01.663Z,1468.00
2019-01-19T13:24:02.158Z,1472.00
2019-01-19T13:25:02.058Z,1508.00
2019-01-19T13:26:01.806Z,1560.00
2019-01-19T13:28:01.943Z,1624.00
2019-01-19T13:29:01.894Z,1664.00
2019-01-19T13:30:01.892Z,1708.00
2019-01-19T13:31:02.210Z,1788.00
2019-01-19T13:33:02.221Z,2016.00
2019-01-19T13:34:02.152Z,2136.00
2019-01-19T13:35:02.274Z,2256.00
2019-01-19T13:37:02.368Z,2536.00
2019-01-19T13:39:02.599Z,3172.00